createdAt,value
2019-01-26T00:00:52.640Z,100454.94
2019-01-26T00:03:24.289Z,100455.90
2019-01-26T00:05:55.865Z,100451.53
2019-01-26T00:08:27.438Z,100450.10
2019-01-26T00:10:59.153Z,100446.89
2019-01-26T00:13:30.709Z,100450.70
2019-01-26T00:16:02.358Z,100440.23
2019-01-26T00:18:35.086Z,100439.16
2019-01-26T00:21:06.760Z,100439.34
2019-01-26T00:23:38.329Z,100440.18
2019-01-26T00:26:10.000Z,100430.86
2019-01-26T00:28:41.871Z,100426.79
2019-01-26T00:31:13.787Z,100417.95
2019-01-26T00:33:45.871Z,100417.08
2019-01-26T00:36:17.444Z,100415.35
2019-01-26T00:38:49.102Z,100409.46
2019-01-26T00:41:20.781Z,100408.36
2019-01-26T00:43:52.449Z,100403.12
2019-01-26T00:46:28.399Z,100400.78
2019-01-26T00:48:57.362Z,100391.05
2019-01-26T00:51:28.970Z,100390.02
2019-01-26T00:54:00.552Z,100395.64
2019-01-26T00:56:32.156Z,100393.58
2019-01-26T00:59:03.839Z,100384.72
2019-01-26T01:01:36.325Z,100380.63
2019-01-26T01:04:07.977Z,100375.98
2019-01-26T01:06:39.654Z,100368.92
2019-01-26T01:09:11.570Z,100361.66
2019-01-26T01:11:43.221Z,100364.48
2019-01-26T01:14:14.959Z,100360.78
2019-01-26T01:16:46.950Z,100352.63
2019-01-26T01:19:18.775Z,100352.45
2019-01-26T01:21:50.503Z,100350.92
2019-01-26T01:24:22.082Z,100333.41
2019-01-26T01:26:53.668Z,100331.45
2019-01-26T01:29:25.303Z,100322.15
2019-01-26T01:31:56.883Z,100319.23
2019-01-26T01:34:28.468Z,100316.72
2019-01-26T01:37:00.076Z,100310.14
2019-01-26T01:39:31.765Z,100309.90
2019-01-26T01:42:03.425Z,100309.06
2019-01-26T01:44:35.071Z,100306.98
2019-01-26T01:47:06.658Z,100297.23
2019-01-26T01:49:38.236Z,100292.61
2019-01-26T01:52:09.900Z,100290.14
2019-01-26T01:54:41.698Z,100283.66
2019-01-26T01:57:13.312Z,100281.03
2019-01-26T01:59:45.645Z,100275.52
2019-01-26T02:02:17.321Z,100266.22
2019-01-26T02:04:48.999Z,100267.13
2019-01-26T02:07:20.706Z,100257.23
2019-01-26T02:09:52.336Z,100253.92
2019-01-26T02:12:24.014Z,100250.13
2019-01-26T02:14:55.584Z,100244.55
2019-01-26T02:17:27.234Z,100237.86
2019-01-26T02:19:58.796Z,100228.93
2019-01-26T02:22:30.452Z,100217.91
2019-01-26T02:25:02.056Z,100216.33
2019-01-26T02:27:33.771Z,100216.80
2019-01-26T02:30:06.544Z,100214.13
2019-01-26T02:32:38.234Z,100208.42
2019-01-26T02:35:09.821Z,100201.58
2019-01-26T02:37:41.864Z,100198.66
2019-01-26T02:40:13.782Z,100197.34
2019-01-26T02:42:45.755Z,100188.55
2019-01-26T02:45:17.336Z,100186.83
2019-01-26T02:47:48.959Z,100172.52
2019-01-26T02:50:20.555Z,100176.59
2019-01-26T02:52:52.580Z,100183.80
2019-01-26T02:55:24.161Z,100177.72
2019-01-26T02:57:55.887Z,100163.60
2019-01-26T03:00:27.462Z,100161.44
2019-01-26T03:02:59.034Z,100147.41
2019-01-26T03:05:31.066Z,100145.59
2019-01-26T03:08:02.638Z,100144.63
2019-01-26T03:10:34.215Z,100142.39
2019-01-26T03:13:05.939Z,100135.64
2019-01-26T03:15:37.641Z,100137.85
2019-01-26T03:18:09.285Z,100141.17
2019-01-26T03:20:40.932Z,100132.16
2019-01-26T03:23:12.864Z,100118.55
2019-01-26T03:25:45.018Z,100116.77
2019-01-26T03:28:16.865Z,100107.63
2019-01-26T03:30:48.804Z,100103.18
2019-01-26T03:33:20.417Z,100097.51
2019-01-26T03:35:52.113Z,100086.94
2019-01-26T03:38:23.704Z,100089.28
2019-01-26T03:40:55.321Z,100077.45
2019-01-26T03:43:26.936Z,100061.63
2019-01-26T03:45:58.575Z,100058.02
2019-01-26T03:48:30.159Z,100053.14
2019-01-26T03:51:01.807Z,100051.52
2019-01-26T03:53:33.472Z,100053.73
2019-01-26T03:56:05.113Z,100053.66
2019-01-26T03:58:36.710Z,100051.97
2019-01-26T04:01:08.286Z,100056.10
2019-01-26T04:03:39.872Z,100038.33
2019-01-26T04:06:11.895Z,100038.55
2019-01-26T04:08:43.827Z,100029.09
2019-01-26T04:11:15.932Z,100024.06
2019-01-26T04:13:47.513Z,100014.72
2019-01-26T04:16:19.099Z,100014.82
2019-01-26T04:18:50.690Z,100011.78
2019-01-26T04:21:22.324Z,100008.10
2019-01-26T04:23:53.914Z,100005.96
2019-01-26T04:26:25.487Z,99999.97
2019-01-26T04:28:57.102Z,100004.03
2019-01-26T04:31:28.685Z,99996.33
2019-01-26T04:34:00.259Z,99995.55
2019-01-26T04:36:31.904Z,99988.41
2019-01-26T04:39:05.158Z,99981.02
2019-01-26T04:41:36.794Z,99975.51
2019-01-26T04:44:08.442Z,99969.19
2019-01-26T04:46:40.011Z,99962.27
2019-01-26T04:49:11.935Z,99958.35
2019-01-26T04:51:43.808Z,99953.06
2019-01-26T04:54:15.770Z,99959.73
2019-01-26T04:56:47.510Z,99955.58
2019-01-26T04:59:19.113Z,99949.13
2019-01-26T05:01:50.693Z,99946.16
2019-01-26T05:04:22.283Z,99951.84
2019-01-26T05:06:53.849Z,99953.82
2019-01-26T05:09:25.461Z,99952.91
2019-01-26T05:11:57.132Z,99951.95
2019-01-26T05:14:28.789Z,99955.64
2019-01-26T05:17:00.422Z,99957.30
2019-01-26T05:19:32.109Z,99949.64
2019-01-26T05:22:03.795Z,99944.70
2019-01-26T05:24:35.445Z,99939.59
2019-01-26T05:27:07.096Z,99932.93
2019-01-26T05:29:38.768Z,99934.04
2019-01-26T05:32:10.471Z,99926.55
2019-01-26T05:34:42.054Z,99927.42
2019-01-26T05:37:13.871Z,99926.27
2019-01-26T05:39:45.890Z,99916.72
2019-01-26T05:42:17.527Z,99912.39
2019-01-26T05:44:49.173Z,99916.56
2019-01-26T05:47:20.831Z,99912.20
2019-01-26T05:49:52.477Z,99906.41
2019-01-26T05:52:24.128Z,99905.88
2019-01-26T05:54:55.884Z,99905.15
2019-01-26T05:57:27.852Z,99904.65
2019-01-26T05:59:59.536Z,99898.39
2019-01-26T06:02:31.118Z,99898.23
2019-01-26T06:05:02.696Z,99899.95
2019-01-26T06:07:34.262Z,99898.34
2019-01-26T06:10:06.344Z,99895.37
2019-01-26T06:12:37.997Z,99889.24
2019-01-26T06:15:10.751Z,99888.36
2019-01-26T06:17:45.678Z,99892.65
2019-01-26T06:20:17.476Z,99882.47
2019-01-26T06:22:49.115Z,99885.10
2019-01-26T06:25:20.864Z,99887.42
2019-01-26T06:27:52.544Z,99880.52
2019-01-26T06:30:25.819Z,99874.03
2019-01-26T06:32:57.384Z,99871.54
2019-01-26T06:35:28.966Z,99872.04
2019-01-26T06:38:00.624Z,99874.83
2019-01-26T06:40:32.292Z,99869.00
2019-01-26T06:43:03.884Z,99877.52
2019-01-26T06:45:35.486Z,99868.09
2019-01-26T06:48:07.239Z,99863.21
2019-01-26T06:50:38.826Z,99861.86
2019-01-26T06:53:10.416Z,99858.23
2019-01-26T06:55:42.010Z,99856.19
2019-01-26T06:58:13.818Z,99850.24
2019-01-26T07:00:45.784Z,99846.80
2019-01-26T07:03:17.420Z,99850.70
2019-01-26T07:05:59.345Z,99842.06
2019-01-26T07:08:30.907Z,99834.41
2019-01-26T07:11:02.582Z,99838.99
2019-01-26T07:13:34.419Z,99839.31
2019-01-26T07:16:06.124Z,99832.95
2019-01-26T07:18:37.696Z,99834.64
2019-01-26T07:21:09.263Z,99822.37
2019-01-26T07:23:40.912Z,99814.72
2019-01-26T07:26:12.887Z,99806.59
2019-01-26T07:28:44.465Z,99808.50
2019-01-26T07:31:16.032Z,99805.77
2019-01-26T07:33:47.672Z,99798.58
2019-01-26T07:36:19.287Z,99793.53
2019-01-26T07:38:50.869Z,99801.03
2019-01-26T07:41:22.610Z,99796.98
2019-01-26T07:43:54.186Z,99794.05
2019-01-26T07:46:25.853Z,99788.28
2019-01-26T07:48:57.418Z,99786.77
2019-01-26T07:51:28.981Z,99774.70
2019-01-26T07:54:01.619Z,99776.58
2019-01-26T07:56:33.263Z,99774.59
2019-01-26T07:59:04.837Z,99772.27
2019-01-26T08:01:36.423Z,99773.61
2019-01-26T08:04:08.075Z,99776.72
2019-01-26T08:06:39.710Z,99763.79
2019-01-26T08:09:11.265Z,99763.59
2019-01-26T08:11:42.960Z,99766.06
2019-01-26T08:14:15.696Z,99760.95
2019-01-26T08:16:47.289Z,99764.52
2019-01-26T08:19:19.942Z,99751.47
2019-01-26T08:21:51.621Z,99757.55
2019-01-26T08:24:23.266Z,99749.70
2019-01-26T08:26:54.883Z,99751.24
2019-01-26T08:29:26.469Z,99742.84
2019-01-26T08:31:58.055Z,99745.17
2019-01-26T08:34:29.769Z,99748.11
2019-01-26T08:37:01.465Z,99741.52
2019-01-26T08:39:33.121Z,99735.03
2019-01-26T08:42:04.802Z,99733.71
2019-01-26T08:44:36.377Z,99734.50
2019-01-26T08:47:08.133Z,99741.37
2019-01-26T08:49:39.783Z,99736.56
2019-01-26T08:52:11.453Z,99745.98
2019-01-26T08:54:43.024Z,99746.77
2019-01-26T08:57:15.100Z,99744.26
2019-01-26T08:59:46.904Z,99737.38
2019-01-26T09:02:32.754Z,99741.05
2019-01-26T09:05:04.800Z,99733.02
2019-01-26T09:07:36.399Z,99733.70
2019-01-26T09:10:08.114Z,99733.34
2019-01-26T09:12:40.584Z,99733.17
2019-01-26T09:15:12.592Z,99725.28
2019-01-26T09:17:44.261Z,99733.89
2019-01-26T09:20:15.986Z,99730.44
2019-01-26T09:22:47.658Z,99720.73
2019-01-26T09:25:19.212Z,99727.85
2019-01-26T09:27:50.990Z,99724.78
2019-01-26T09:30:22.625Z,99718.78
2019-01-26T09:32:54.278Z,99712.34
2019-01-26T09:35:25.859Z,99715.47
2019-01-26T09:37:57.484Z,99707.31
2019-01-26T09:40:29.064Z,99702.03
2019-01-26T09:43:00.731Z,99699.96
2019-01-26T09:45:33.076Z,99695.84
2019-01-26T09:48:04.769Z,99699.33
2019-01-26T09:50:36.446Z,99700.84
2019-01-26T09:53:08.112Z,99699.24
2019-01-26T09:55:39.770Z,99691.08
2019-01-26T09:58:11.354Z,99696.76
2019-01-26T10:00:43.009Z,99700.16
2019-01-26T10:03:15.030Z,99695.56
2019-01-26T10:05:46.924Z,99692.53
2019-01-26T10:08:19.751Z,99697.00
2019-01-26T10:10:52.451Z,99698.70
2019-01-26T10:13:24.122Z,99693.84
2019-01-26T10:15:55.700Z,99689.27
2019-01-26T10:18:27.336Z,99686.25
2019-01-26T10:20:59.163Z,99690.05
2019-01-26T10:23:30.901Z,99679.19
2019-01-26T10:26:02.570Z,99679.55
2019-01-26T10:28:34.258Z,99664.91
2019-01-26T10:31:05.900Z,99669.78
2019-01-26T10:33:37.535Z,99659.05
2019-01-26T10:36:21.723Z,99653.11
2019-01-26T10:38:55.738Z,99653.91
2019-01-26T10:41:52.232Z,99643.65
2019-01-26T10:44:29.013Z,99635.28
2019-01-26T10:47:00.649Z,99640.43
2019-01-26T10:49:32.324Z,99645.30
2019-01-26T10:52:05.067Z,99651.17
2019-01-26T10:54:36.741Z,99648.22
2019-01-26T10:57:08.699Z,99658.35
2019-01-26T10:59:40.380Z,99650.41
2019-01-26T11:02:11.997Z,99660.02
2019-01-26T11:04:43.763Z,99650.95
2019-01-26T11:07:15.905Z,99647.83
2019-01-26T11:09:47.597Z,99651.14
2019-01-26T11:12:19.234Z,99647.56
2019-01-26T11:14:50.829Z,99645.30
2019-01-26T11:17:22.474Z,99635.80
2019-01-26T11:19:54.354Z,99627.92
2019-01-26T11:22:26.045Z,99635.28
2019-01-26T11:24:57.722Z,99639.88
2019-01-26T11:27:29.998Z,99627.13
2019-01-26T11:30:01.718Z,99629.09
2019-01-26T11:32:34.629Z,99620.75
2019-01-26T11:35:07.513Z,99618.36
2019-01-26T11:37:39.158Z,99625.55
2019-01-26T11:40:20.234Z,99616.47
2019-01-26T11:42:51.911Z,99621.24
2019-01-26T11:45:48.463Z,99626.80
2019-01-26T11:48:23.050Z,99627.58
2019-01-26T11:51:00.142Z,99619.99
2019-01-26T11:53:31.782Z,99624.75
2019-01-26T11:56:08.469Z,99620.88
2019-01-26T11:58:40.089Z,99623.56
2019-01-26T12:01:39.698Z,99629.88
2019-01-26T12:04:33.062Z,99625.13
2019-01-26T12:07:12.740Z,99620.20
2019-01-26T12:09:44.872Z,99621.38
2019-01-26T12:12:16.872Z,99620.45
2019-01-26T12:14:48.865Z,99614.13
2019-01-26T12:17:20.539Z,99605.74
2019-01-26T12:19:52.224Z,99606.50
2019-01-26T12:22:26.625Z,99606.92
2019-01-26T12:24:58.262Z,99605.91
2019-01-26T12:27:29.881Z,99603.44
2019-01-26T12:30:01.507Z,99607.02
2019-01-26T12:32:35.442Z,99608.80
2019-01-26T12:35:11.187Z,99608.64
2019-01-26T12:37:47.721Z,99611.14
2019-01-26T12:40:21.480Z,99612.70
2019-01-26T12:42:53.751Z,99609.52
2019-01-26T12:45:25.687Z,99610.20
2019-01-26T12:47:57.370Z,99604.22
2019-01-26T12:50:32.213Z,99604.82
2019-01-26T12:53:06.223Z,99603.67
2019-01-26T12:55:42.418Z,99594.47
2019-01-26T12:58:21.064Z,99595.20
2019-01-26T13:00:55.358Z,99601.42
2019-01-26T13:03:30.554Z,99603.28
2019-01-26T13:06:04.447Z,99609.90
2019-01-26T13:08:40.929Z,99605.16
2019-01-26T13:11:20.886Z,99605.63
2019-01-26T13:13:53.111Z,99607.02
2019-01-26T13:16:24.677Z,99608.79
2019-01-26T13:18:56.901Z,99608.33
2019-01-26T13:21:28.488Z,99605.92
2019-01-26T13:24:00.170Z,99611.22
2019-01-26T13:26:31.875Z,99608.09
2019-01-26T13:29:03.574Z,99613.06
2019-01-26T13:31:36.632Z,99624.30
2019-01-26T13:34:09.670Z,99615.27
2019-01-26T13:36:41.239Z,99627.02
2019-01-26T13:39:13.042Z,99627.10
2019-01-26T13:41:44.729Z,99624.12
2019-01-26T13:44:17.282Z,99624.76
2019-01-26T13:46:49.238Z,99622.95
2019-01-26T13:49:20.835Z,99621.63
2019-01-26T13:51:52.588Z,99617.30
2019-01-26T13:54:24.239Z,99617.05
2019-01-26T13:56:55.871Z,99612.53
2019-01-26T13:59:27.749Z,99613.64
2019-01-26T14:01:59.711Z,99611.54
2019-01-26T14:04:31.486Z,99608.66
2019-01-26T14:07:03.817Z,99614.64
2019-01-26T14:09:35.454Z,99617.59
2019-01-26T14:12:07.113Z,99621.56
2019-01-26T14:14:39.834Z,99621.27
2019-01-26T14:17:12.217Z,99624.76
2019-01-26T14:19:43.864Z,99617.36
2019-01-26T14:22:15.583Z,99628.78
2019-01-26T14:24:47.425Z,99625.98
2019-01-26T14:27:19.431Z,99625.45
2019-01-26T14:29:51.080Z,99625.54
2019-01-26T14:32:22.678Z,99626.86
2019-01-26T14:34:54.338Z,99627.94
2019-01-26T14:37:29.573Z,99626.23
2019-01-26T14:40:03.072Z,99622.50
2019-01-26T14:42:36.463Z,99610.89
2019-01-26T14:45:11.907Z,99614.32
2019-01-26T14:47:46.538Z,99618.53
2019-01-26T14:50:21.048Z,99611.47
2019-01-26T14:52:55.967Z,99615.58
2019-01-26T14:55:31.590Z,99615.73
2019-01-26T14:58:03.503Z,99618.63
2019-01-26T15:00:35.409Z,99617.05
2019-01-26T15:03:08.290Z,99624.36
2019-01-26T15:05:41.750Z,99623.61
2019-01-26T15:08:15.506Z,99623.61
2019-01-26T15:10:49.206Z,99626.08
2019-01-26T15:13:21.689Z,99624.37
2019-01-26T15:15:54.587Z,99623.22
2019-01-26T15:18:27.643Z,99623.12
2019-01-26T15:20:59.885Z,99626.55
2019-01-26T15:23:31.845Z,99629.98
2019-01-26T15:26:04.003Z,99627.10
2019-01-26T15:28:35.913Z,99626.32
2019-01-26T15:31:07.499Z,99619.77
2019-01-26T15:33:40.822Z,99623.73
2019-01-26T15:36:15.831Z,99627.64
2019-01-26T15:38:49.305Z,99624.66
2019-01-26T15:41:25.208Z,99623.04
2019-01-26T15:43:58.828Z,99616.88
2019-01-26T15:46:32.204Z,99617.51
2019-01-26T15:49:06.872Z,99622.74
2019-01-26T15:51:40.997Z,99623.59
2019-01-26T15:54:15.617Z,99625.35
2019-01-26T15:56:49.395Z,99621.23
2019-01-26T15:59:22.805Z,99626.14
2019-01-26T16:01:55.482Z,99618.83
2019-01-26T16:04:30.603Z,99619.31
2019-01-26T16:07:04.305Z,99622.86
2019-01-26T16:09:37.285Z,99628.14
2019-01-26T16:12:11.657Z,99634.44
2019-01-26T16:14:46.615Z,99633.03
2019-01-26T16:17:19.759Z,99634.75
2019-01-26T16:19:54.255Z,99632.11
2019-01-26T16:22:28.855Z,99640.67
2019-01-26T16:25:00.873Z,99640.69
2019-01-26T16:27:34.546Z,99635.93
2019-01-26T16:30:11.349Z,99636.55
2019-01-26T16:32:45.369Z,99637.79
2019-01-26T16:35:18.664Z,99635.39
2019-01-26T16:37:50.719Z,99646.36
2019-01-26T16:40:27.003Z,99649.20
2019-01-26T16:43:01.491Z,99649.52
2019-01-26T16:45:37.842Z,99648.52
2019-01-26T16:48:14.527Z,99648.62
2019-01-26T16:50:46.525Z,99645.20
2019-01-26T16:53:18.077Z,99653.67
2019-01-26T16:55:49.640Z,99654.80
2019-01-26T16:58:21.218Z,99653.56
2019-01-26T17:00:55.595Z,99656.36
2019-01-26T17:03:27.244Z,99659.25
2019-01-26T17:05:58.877Z,99661.66
2019-01-26T17:08:30.482Z,99658.07
2019-01-26T17:11:02.039Z,99657.91
2019-01-26T17:13:33.701Z,99655.27
2019-01-26T17:16:05.329Z,99654.67
2019-01-26T17:18:36.977Z,99662.28
2019-01-26T17:21:08.533Z,99653.47
2019-01-26T17:23:40.090Z,99653.27
2019-01-26T17:26:11.653Z,99655.67
2019-01-26T17:28:43.671Z,99653.17
2019-01-26T17:31:15.750Z,99656.14
2019-01-26T17:33:47.677Z,99648.59
2019-01-26T17:36:19.573Z,99646.73
2019-01-26T17:38:51.237Z,99640.95
2019-01-26T17:41:22.856Z,99644.92
2019-01-26T17:43:54.532Z,99640.03
2019-01-26T17:46:26.174Z,99639.31
2019-01-26T17:48:57.750Z,99644.09
2019-01-26T17:51:29.381Z,99644.45
2019-01-26T17:54:01.032Z,99643.13
2019-01-26T17:56:32.657Z,99644.84
2019-01-26T17:59:04.308Z,99649.11
2019-01-26T18:01:35.946Z,99649.45
2019-01-26T18:04:07.625Z,99652.87
2019-01-26T18:06:39.252Z,99652.57
2019-01-26T18:09:10.904Z,99652.39
2019-01-26T18:11:42.704Z,99653.80
2019-01-26T18:14:14.694Z,99648.66
2019-01-26T18:16:46.750Z,99653.11
2019-01-26T18:19:18.411Z,99655.73
2019-01-26T18:21:49.982Z,99651.16
2019-01-26T18:24:21.641Z,99657.92
2019-01-26T18:26:53.228Z,99653.11
2019-01-26T18:29:24.901Z,99647.66
2019-01-26T18:31:56.535Z,99642.05
2019-01-26T18:34:28.184Z,99647.73
2019-01-26T18:36:59.818Z,99638.62
2019-01-26T18:39:31.480Z,99648.33
2019-01-26T18:42:03.127Z,99650.14
2019-01-26T18:44:34.890Z,99644.12
2019-01-26T18:47:06.550Z,99648.42
2019-01-26T18:49:38.212Z,99641.17
2019-01-26T18:52:09.850Z,99639.55
2019-01-26T18:54:41.609Z,99640.78
2019-01-26T18:57:13.459Z,99637.59
2019-01-26T18:59:45.106Z,99635.43
2019-01-26T19:02:16.747Z,99638.95
2019-01-26T19:04:52.603Z,99627.64
2019-01-26T19:07:24.443Z,99624.45
2019-01-26T19:09:56.152Z,99619.86
2019-01-26T19:12:27.763Z,99616.97
2019-01-26T19:14:59.426Z,99613.55
2019-01-26T19:17:31.059Z,99615.50
2019-01-26T19:20:02.824Z,99611.14
2019-01-26T19:22:34.460Z,99610.56
2019-01-26T19:25:07.397Z,99608.88
2019-01-26T19:27:39.014Z,99612.28
2019-01-26T19:30:11.674Z,99613.55
2019-01-26T19:32:43.546Z,99614.86
2019-01-26T19:35:15.261Z,99607.95
2019-01-26T19:37:47.215Z,99611.98
2019-01-26T19:40:20.257Z,99608.48
2019-01-26T19:42:51.903Z,99608.84
2019-01-26T19:45:24.592Z,99605.80
2019-01-26T19:47:56.227Z,99605.36
2019-01-26T19:50:27.819Z,99606.30
2019-01-26T19:52:59.439Z,99602.42
2019-01-26T19:55:31.183Z,99600.80
2019-01-26T19:58:02.819Z,99604.58
2019-01-26T20:00:34.467Z,99601.25
2019-01-26T20:03:06.106Z,99606.69
2019-01-26T20:05:37.783Z,99610.02
2019-01-26T20:08:09.429Z,99603.74
2019-01-26T20:10:41.081Z,99601.24
2019-01-26T20:13:14.058Z,99599.38
2019-01-26T20:15:45.686Z,99591.53
2019-01-26T20:18:17.311Z,99596.10
2019-01-26T20:20:48.954Z,99599.08
2019-01-26T20:23:20.595Z,99594.42
2019-01-26T20:25:52.491Z,99590.52
2019-01-26T20:28:24.067Z,99590.72
2019-01-26T20:30:55.712Z,99589.28
2019-01-26T20:33:27.421Z,99591.53
2019-01-26T20:35:59.145Z,99594.33
2019-01-26T20:38:30.786Z,99593.78
2019-01-26T20:41:02.428Z,99599.41
2019-01-26T20:43:34.077Z,99592.08
2019-01-26T20:46:05.728Z,99596.42
2019-01-26T20:48:40.292Z,99592.91
2019-01-26T20:51:14.318Z,99585.97
2019-01-26T20:53:46.404Z,99581.00
2019-01-26T20:56:20.641Z,99581.63
2019-01-26T20:58:55.697Z,99583.44
2019-01-26T21:01:29.399Z,99580.08
2019-01-26T21:04:01.674Z,99578.22
2019-01-26T21:06:36.093Z,99573.95
2019-01-26T21:09:09.562Z,99577.98
2019-01-26T21:11:42.068Z,99578.37
2019-01-26T21:14:14.206Z,99567.78
2019-01-26T21:16:46.221Z,99574.78
2019-01-26T21:19:19.453Z,99580.63
2019-01-26T21:21:54.170Z,99576.98
2019-01-26T21:24:28.560Z,99574.48
2019-01-26T21:27:02.239Z,99577.44
2019-01-26T21:29:38.434Z,99573.41
2019-01-26T21:32:13.552Z,99577.83
2019-01-26T21:34:46.699Z,99578.45
2019-01-26T21:37:20.442Z,99568.41
2019-01-26T21:39:52.534Z,99566.78
2019-01-26T21:42:27.089Z,99568.73
2019-01-26T21:44:59.177Z,99562.78
2019-01-26T21:47:30.792Z,99567.78
2019-01-26T21:50:02.442Z,99560.47
2019-01-26T21:52:40.796Z,99558.80
2019-01-26T21:55:07.730Z,99558.55
2019-01-26T21:57:39.394Z,99555.10
2019-01-26T22:00:16.603Z,99552.16
2019-01-26T22:02:48.606Z,99552.78
2019-01-26T22:05:21.183Z,99547.94
2019-01-26T22:07:53.004Z,99541.38
2019-01-26T22:10:24.640Z,99547.32
2019-01-26T22:12:56.222Z,99540.92
2019-01-26T22:15:27.875Z,99535.89
2019-01-26T22:17:59.524Z,99528.33
2019-01-26T22:20:31.183Z,99531.11
2019-01-26T22:23:02.801Z,99521.23
2019-01-26T22:25:34.446Z,99519.13
2019-01-26T22:28:06.134Z,99516.73
2019-01-26T22:30:37.707Z,99521.70
2019-01-26T22:33:09.345Z,99521.67
2019-01-26T22:35:40.925Z,99527.94
2019-01-26T22:38:12.519Z,99528.81
2019-01-26T22:40:44.126Z,99527.55
2019-01-26T22:43:16.148Z,99523.70
2019-01-26T22:45:47.981Z,99527.61
2019-01-26T22:48:20.174Z,99521.82
2019-01-26T22:50:51.889Z,99522.38
2019-01-26T22:53:23.574Z,99518.03
2019-01-26T22:55:55.150Z,99504.66
2019-01-26T22:58:26.811Z,99490.30
2019-01-26T23:01:18.140Z,99491.45
2019-01-26T23:04:13.690Z,99499.91
2019-01-26T23:07:11.774Z,99503.24
2019-01-26T23:09:54.927Z,99501.85
2019-01-26T23:12:44.801Z,99495.62
2019-01-26T23:15:58.749Z,99498.04
2019-01-26T23:18:46.899Z,99490.87
2019-01-26T23:21:50.880Z,99491.38
2019-01-26T23:24:42.655Z,99491.70
2019-01-26T23:27:34.510Z,99487.80
2019-01-26T23:30:48.676Z,99484.34
2019-01-26T23:33:20.387Z,99483.45
2019-01-26T23:35:51.982Z,99473.56
2019-01-26T23:38:23.608Z,99469.77
2019-01-26T23:40:55.280Z,99471.75
2019-01-26T23:43:26.891Z,99464.97
2019-01-26T23:45:58.548Z,99449.29
2019-01-26T23:48:30.206Z,99447.26
2019-01-26T23:51:01.903Z,99449.40
2019-01-26T23:53:33.575Z,99449.66
2019-01-26T23:56:05.270Z,99443.98
2019-01-26T23:58:36.916Z,99444.37
